createdAt,value
2023-01-02T00:00:31.509Z,75.62
2023-01-02T00:02:55.136Z,75.83
2023-01-02T00:05:18.955Z,76.23
2023-01-02T00:07:42.520Z,76.24
2023-01-02T00:10:07.640Z,75.93
2023-01-02T00:12:31.391Z,77.26
2023-01-02T00:14:56.834Z,77.91
2023-01-02T00:17:20.710Z,78.29
2023-01-02T00:19:44.315Z,76.69
2023-01-02T00:22:07.838Z,76.62
2023-01-02T00:24:31.414Z,77.13
2023-01-02T00:26:54.921Z,76.89
2023-01-02T00:29:18.621Z,76.45
2023-01-02T00:31:43.518Z,78.19
2023-01-02T00:34:07.136Z,76.77
2023-01-02T00:36:30.742Z,76.29
2023-01-02T00:38:56.733Z,76.06
2023-01-02T00:41:21.474Z,76.92
2023-01-02T00:43:45.092Z,76.85
2023-01-02T00:46:11.889Z,77.44
2023-01-02T00:48:37.330Z,76.39
2023-01-02T00:51:00.830Z,78.04
2023-01-02T00:53:24.426Z,78.41
2023-01-02T00:55:48.396Z,78.54
2023-01-02T00:58:12.000Z,79.12
2023-01-02T01:00:35.603Z,78.59
2023-01-02T01:03:00.122Z,77.29
2023-01-02T01:05:25.257Z,76.78
2023-01-02T01:07:49.168Z,77.62
2023-01-02T01:10:12.705Z,77.75
2023-01-02T01:12:36.335Z,79.25
2023-01-02T01:14:59.858Z,79.74
2023-01-02T01:17:23.471Z,79.55
2023-01-02T01:19:46.992Z,80.17
2023-01-02T01:22:11.971Z,80.11
2023-01-02T01:24:35.624Z,80.66
2023-01-02T01:26:59.217Z,81.84
2023-01-02T01:29:22.960Z,81.07
2023-01-02T01:31:46.673Z,81.67
2023-01-02T01:34:12.537Z,80.60
2023-01-02T01:36:38.372Z,80.10
2023-01-02T01:39:03.301Z,80.39
2023-01-02T01:41:27.370Z,79.39
2023-01-02T01:43:53.277Z,81.55
2023-01-02T01:46:26.912Z,81.99
2023-01-02T01:48:56.149Z,80.28
2023-01-02T01:51:21.090Z,81.31
2023-01-02T01:53:47.217Z,81.29
2023-01-02T01:56:12.919Z,79.69
2023-01-02T01:58:41.925Z,80.84
2023-01-02T02:01:06.243Z,81.14
2023-01-02T02:03:33.826Z,81.88
2023-01-02T02:05:59.192Z,81.15
2023-01-02T02:08:29.552Z,83.17
2023-01-02T02:10:54.432Z,81.09
2023-01-02T02:13:20.180Z,81.29
2023-01-02T02:16:01.122Z,81.27
2023-01-02T02:18:44.600Z,79.98
2023-01-02T02:21:28.510Z,82.26
2023-01-02T02:24:22.064Z,83.94
2023-01-02T02:27:27.435Z,81.73
2023-01-02T02:30:15.260Z,82.64
2023-01-02T02:33:06.659Z,81.73
2023-01-02T02:35:43.880Z,83.49
2023-01-02T02:38:14.115Z,81.84
2023-01-02T02:40:52.968Z,81.64
2023-01-02T02:43:26.646Z,80.57
2023-01-02T02:46:02.693Z,80.02
2023-01-02T02:48:32.150Z,79.71
2023-01-02T02:51:04.247Z,80.44
2023-01-02T02:53:36.829Z,79.58
2023-01-02T02:56:03.197Z,78.35
2023-01-02T02:58:29.320Z,77.88
2023-01-02T03:01:03.917Z,77.88
2023-01-02T03:03:27.978Z,77.52
2023-01-02T03:06:10.310Z,76.53
2023-01-02T03:08:43.900Z,77.02
2023-01-02T03:11:07.963Z,76.63
2023-01-02T03:13:42.411Z,76.70
2023-01-02T03:16:14.599Z,74.79
2023-01-02T03:18:47.444Z,75.15
2023-01-02T03:21:16.317Z,75.82
2023-01-02T03:23:46.254Z,75.97
2023-01-02T03:26:09.976Z,75.31
2023-01-02T03:28:36.204Z,74.80
2023-01-02T03:31:04.112Z,74.73
2023-01-02T03:33:32.066Z,74.67
2023-01-02T03:36:00.359Z,74.45
2023-01-02T03:38:29.618Z,74.52
2023-01-02T03:41:01.726Z,73.85
2023-01-02T03:43:30.219Z,74.41
2023-01-02T03:46:02.814Z,73.93
2023-01-02T03:48:35.722Z,73.85
2023-01-02T03:51:02.487Z,73.73
2023-01-02T03:53:26.725Z,73.15
2023-01-02T03:56:01.261Z,72.74
2023-01-02T03:58:34.121Z,72.90
2023-01-02T04:01:05.731Z,73.60
2023-01-02T04:03:38.221Z,73.66
2023-01-02T04:06:06.860Z,73.00
2023-01-02T04:08:36.200Z,72.32
2023-01-02T04:11:02.284Z,72.88
2023-01-02T04:13:30.766Z,72.86
2023-01-02T04:15:55.341Z,71.79
2023-01-02T04:18:24.825Z,71.80
2023-01-02T04:20:54.662Z,71.86
2023-01-02T04:23:26.211Z,72.10
2023-01-02T04:25:55.717Z,71.98
2023-01-02T04:28:26.802Z,71.86
2023-01-02T04:30:57.273Z,71.21
2023-01-02T04:33:23.429Z,71.15
2023-01-02T04:35:47.123Z,71.45
2023-01-02T04:38:13.491Z,71.79
2023-01-02T04:40:38.674Z,71.43
2023-01-02T04:43:02.669Z,70.76
2023-01-02T04:45:26.188Z,70.90
2023-01-02T04:47:50.543Z,70.63
2023-01-02T04:50:14.665Z,70.03
2023-01-02T04:52:38.511Z,70.71
2023-01-02T04:55:03.411Z,70.17
2023-01-02T04:57:27.012Z,70.35
2023-01-02T04:59:50.617Z,70.42
2023-01-02T05:02:14.358Z,70.29
2023-01-02T05:04:37.953Z,70.08
2023-01-02T05:07:01.510Z,69.06
2023-01-02T05:09:25.056Z,69.75
2023-01-02T05:11:50.098Z,68.96
2023-01-02T05:14:13.584Z,68.23
2023-01-02T05:16:37.124Z,67.76
2023-01-02T05:19:00.667Z,67.21
2023-01-02T05:21:41.680Z,66.88
2023-01-02T05:24:06.563Z,66.82
2023-01-02T05:26:32.804Z,66.18
2023-01-02T05:28:57.978Z,66.54
2023-01-02T05:31:22.076Z,66.43
2023-01-02T05:33:45.750Z,66.22
2023-01-02T05:36:10.762Z,66.21
2023-01-02T05:38:34.977Z,65.15
2023-01-02T05:41:02.843Z,65.20
2023-01-02T05:43:26.449Z,66.72
2023-01-02T05:45:51.426Z,65.31
2023-01-02T05:48:14.955Z,66.02
2023-01-02T05:50:38.525Z,65.48
2023-01-02T05:53:02.108Z,65.30
2023-01-02T05:55:25.632Z,65.12
2023-01-02T05:57:49.196Z,65.55
2023-01-02T06:00:14.677Z,64.35
2023-01-02T06:02:41.101Z,63.79
2023-01-02T06:05:09.009Z,63.95
2023-01-02T06:07:32.592Z,64.06
2023-01-02T06:09:56.151Z,64.21
2023-01-02T06:12:19.656Z,64.81
2023-01-02T06:14:43.232Z,63.99
2023-01-02T06:17:06.741Z,63.56
2023-01-02T06:19:31.719Z,63.85
2023-01-02T06:21:55.233Z,63.67
2023-01-02T06:24:18.899Z,63.79
2023-01-02T06:26:42.420Z,64.27
2023-01-02T06:29:06.388Z,63.63
2023-01-02T06:31:30.483Z,63.92
2023-01-02T06:33:55.877Z,63.75
2023-01-02T06:36:21.044Z,63.77
2023-01-02T06:38:45.614Z,63.74
2023-01-02T06:41:10.960Z,63.53
2023-01-02T06:43:35.497Z,63.84
2023-01-02T06:46:00.126Z,64.20
2023-01-02T06:48:23.724Z,63.62
2023-01-02T06:50:47.435Z,63.68
2023-01-02T06:53:12.871Z,63.52
2023-01-02T06:55:36.403Z,63.24
2023-01-02T06:58:04.781Z,63.62
2023-01-02T07:00:32.641Z,63.44
2023-01-02T07:02:56.239Z,64.17
2023-01-02T07:05:24.380Z,63.35
2023-01-02T07:07:48.315Z,62.74
2023-01-02T07:10:13.249Z,62.73
2023-01-02T07:12:37.995Z,62.36
2023-01-02T07:15:01.515Z,62.79
2023-01-02T07:17:25.065Z,62.45
2023-01-02T07:19:53.851Z,62.53
2023-01-02T07:22:18.947Z,61.79
2023-01-02T07:24:42.453Z,62.05
2023-01-02T07:27:07.420Z,61.88
2023-01-02T07:29:30.935Z,61.92
2023-01-02T07:31:54.511Z,61.61
2023-01-02T07:34:18.208Z,62.01
2023-01-02T07:36:41.816Z,61.48
2023-01-02T07:39:05.490Z,61.48
2023-01-02T07:41:29.108Z,62.01
2023-01-02T07:43:56.082Z,61.90
2023-01-02T07:46:21.667Z,61.45
2023-01-02T07:48:46.017Z,61.54
2023-01-02T07:51:10.131Z,61.54
2023-01-02T07:53:34.565Z,60.92
2023-01-02T07:55:59.437Z,60.58
2023-01-02T07:58:22.960Z,61.71
2023-01-02T08:00:47.971Z,61.55
2023-01-02T08:03:11.528Z,60.97
2023-01-02T08:05:35.559Z,61.40
2023-01-02T08:07:59.061Z,61.35
2023-01-02T08:10:22.892Z,61.35
2023-01-02T08:12:46.458Z,60.73
2023-01-02T08:15:11.106Z,61.79
2023-01-02T08:17:36.050Z,60.47
2023-01-02T08:20:06.845Z,60.51
2023-01-02T08:22:31.443Z,61.09
2023-01-02T08:24:54.977Z,60.52
2023-01-02T08:27:18.739Z,61.03
2023-01-02T08:29:42.383Z,59.86
2023-01-02T08:32:07.065Z,59.90
2023-01-02T08:34:32.024Z,59.84
2023-01-02T08:36:55.565Z,59.18
2023-01-02T08:39:19.169Z,59.12
2023-01-02T08:41:43.031Z,59.54
2023-01-02T08:44:06.923Z,58.96
2023-01-02T08:46:32.395Z,60.30
2023-01-02T08:48:58.285Z,58.74
2023-01-02T08:51:23.240Z,57.75
2023-01-02T08:53:46.839Z,58.69
2023-01-02T08:56:22.483Z,57.63
2023-01-02T08:58:52.039Z,57.81
2023-01-02T09:01:16.243Z,57.94
2023-01-02T09:03:40.803Z,57.89
2023-01-02T09:06:04.624Z,58.13
2023-01-02T09:08:29.524Z,57.58
2023-01-02T09:10:53.095Z,57.41
2023-01-02T09:13:16.810Z,56.57
2023-01-02T09:15:40.391Z,58.10
2023-01-02T09:18:03.911Z,56.80
2023-01-02T09:20:27.510Z,56.92
2023-01-02T09:22:51.014Z,57.14
2023-01-02T09:25:22.048Z,55.96
2023-01-02T09:27:47.684Z,56.06
2023-01-02T09:30:12.467Z,55.79
2023-01-02T09:32:36.105Z,56.52
2023-01-02T09:34:59.679Z,56.45
2023-01-02T09:37:23.303Z,56.39
2023-01-02T09:39:46.974Z,55.58
2023-01-02T09:42:17.421Z,55.33
2023-01-02T09:44:44.649Z,55.44
2023-01-02T09:47:14.618Z,55.42
2023-01-02T09:49:45.999Z,55.60
2023-01-02T09:52:12.638Z,54.83
2023-01-02T09:54:36.297Z,54.56
2023-01-02T09:57:24.177Z,55.05
2023-01-02T09:59:55.400Z,53.71
2023-01-02T10:02:36.696Z,55.01
2023-01-02T10:05:30.736Z,55.49
2023-01-02T10:08:04.390Z,54.64
2023-01-02T10:10:35.343Z,54.59
2023-01-02T10:13:08.039Z,54.92
2023-01-02T10:15:33.211Z,55.02
2023-01-02T10:18:02.003Z,54.12
2023-01-02T10:20:31.115Z,54.98
2023-01-02T10:22:59.110Z,54.63
2023-01-02T10:25:29.125Z,54.40
2023-01-02T10:28:01.351Z,53.50
2023-01-02T10:30:26.942Z,54.16
2023-01-02T10:32:57.302Z,54.06
2023-01-02T10:35:36.609Z,54.27
2023-01-02T10:38:00.287Z,53.97
2023-01-02T10:40:24.148Z,53.80
2023-01-02T10:42:49.175Z,54.89
2023-01-02T10:45:18.231Z,54.58
2023-01-02T10:47:42.049Z,55.12
2023-01-02T10:50:07.884Z,54.56
2023-01-02T10:52:36.261Z,54.20
2023-01-02T10:55:00.958Z,55.14
2023-01-02T10:57:28.033Z,54.17
2023-01-02T10:59:57.405Z,54.17
2023-01-02T11:02:32.225Z,54.03
2023-01-02T11:04:55.883Z,53.92
2023-01-02T11:07:26.439Z,54.02
2023-01-02T11:09:57.540Z,54.24
2023-01-02T11:12:26.950Z,54.54
2023-01-02T11:14:51.221Z,55.18
2023-01-02T11:17:18.234Z,56.88
2023-01-02T11:19:46.347Z,55.89
2023-01-02T11:22:10.544Z,56.95
2023-01-02T11:24:35.453Z,56.80
2023-01-02T11:27:02.835Z,56.53
2023-01-02T11:29:32.015Z,56.97
2023-01-02T11:31:59.876Z,57.33
2023-01-02T11:34:27.080Z,57.08
2023-01-02T11:37:07.087Z,56.75
2023-01-02T11:39:34.426Z,56.56
2023-01-02T11:42:29.787Z,58.19
2023-01-02T11:44:58.590Z,59.81
2023-01-02T11:47:34.563Z,60.79
2023-01-02T11:49:58.965Z,59.66
2023-01-02T11:52:34.328Z,61.04
2023-01-02T11:55:03.320Z,60.20
2023-01-02T11:57:37.077Z,60.98
2023-01-02T12:00:03.073Z,60.74
2023-01-02T12:02:36.205Z,60.49
2023-01-02T12:04:59.902Z,59.54
2023-01-02T12:07:41.719Z,60.52
2023-01-02T12:10:21.625Z,59.82
2023-01-02T12:13:05.009Z,60.12
2023-01-02T12:15:48.285Z,59.83
2023-01-02T12:18:31.237Z,61.48
2023-01-02T12:21:01.544Z,60.01
2023-01-02T12:24:08.501Z,60.61
2023-01-02T12:26:42.018Z,60.70
2023-01-02T12:29:46.623Z,59.84
2023-01-02T12:33:10.628Z,59.47
2023-01-02T12:36:16.416Z,59.30
2023-01-02T12:39:06.351Z,58.64
2023-01-02T12:42:00.503Z,60.45
2023-01-02T12:44:38.646Z,60.49
2023-01-02T12:47:33.720Z,59.79
2023-01-02T12:50:19.560Z,61.63
2023-01-02T12:52:59.761Z,61.79
2023-01-02T12:55:38.604Z,61.89
2023-01-02T12:58:08.804Z,59.92
2023-01-02T13:01:00.586Z,59.12
2023-01-02T13:03:55.056Z,59.39
2023-01-02T13:06:45.477Z,59.11
2023-01-02T13:09:21.773Z,59.42
2023-01-02T13:11:59.187Z,59.25
2023-01-02T13:14:32.068Z,58.11
2023-01-02T13:17:07.959Z,57.98
2023-01-02T13:19:40.717Z,58.33
2023-01-02T13:22:15.781Z,59.75
2023-01-02T13:24:39.909Z,60.15
2023-01-02T13:27:06.027Z,59.09
2023-01-02T13:29:41.739Z,58.67
2023-01-02T13:32:05.847Z,58.17
2023-01-02T13:34:32.970Z,58.30
2023-01-02T13:37:03.256Z,58.69
2023-01-02T13:39:31.047Z,58.47
2023-01-02T13:42:14.357Z,57.75
2023-01-02T13:44:46.671Z,58.33
2023-01-02T13:47:25.929Z,57.65
2023-01-02T13:50:00.039Z,57.86
2023-01-02T13:52:24.663Z,58.51
2023-01-02T13:55:32.403Z,57.43
2023-01-02T13:58:53.469Z,57.75
2023-01-02T14:02:08.726Z,57.60
2023-01-02T14:04:39.367Z,57.15
2023-01-02T14:07:45.848Z,58.19
2023-01-02T14:10:28.410Z,57.75
2023-01-02T14:12:59.360Z,56.57
2023-01-02T14:15:26.728Z,57.34
2023-01-02T14:18:00.939Z,57.25
2023-01-02T14:20:27.991Z,57.78
2023-01-02T14:22:54.507Z,58.27
2023-01-02T14:25:18.634Z,57.53
2023-01-02T14:27:49.841Z,57.68
2023-01-02T14:30:15.837Z,57.46
2023-01-02T14:32:42.534Z,57.04
2023-01-02T14:35:24.456Z,57.48
2023-01-02T14:37:50.699Z,58.20
2023-01-02T14:40:35.923Z,57.35
2023-01-02T14:43:20.692Z,57.39
2023-01-02T14:45:48.018Z,57.41
2023-01-02T14:48:17.820Z,57.63
2023-01-02T14:50:45.815Z,58.04
2023-01-02T14:53:19.442Z,57.51
2023-01-02T14:55:43.633Z,57.44
2023-01-02T14:58:14.395Z,57.46
2023-01-02T15:00:40.070Z,57.54
2023-01-02T15:03:24.436Z,57.37
2023-01-02T15:05:55.726Z,57.43
2023-01-02T15:08:24.358Z,58.37
2023-01-02T15:11:20.264Z,58.09
2023-01-02T15:14:04.195Z,59.17
2023-01-02T15:16:30.556Z,59.12
2023-01-02T15:18:58.913Z,59.23
2023-01-02T15:21:26.748Z,59.52
2023-01-02T15:23:50.310Z,59.94
2023-01-02T15:26:34.666Z,61.03
2023-01-02T15:29:02.294Z,60.57
2023-01-02T15:31:26.240Z,61.36
2023-01-02T15:33:54.431Z,62.27
2023-01-02T15:36:32.825Z,62.10
2023-01-02T15:39:08.130Z,63.31
2023-01-02T15:41:31.794Z,62.86
2023-01-02T15:44:16.683Z,63.39
2023-01-02T15:46:40.472Z,63.97
2023-01-02T15:49:05.026Z,64.51
2023-01-02T15:51:40.298Z,64.44
2023-01-02T15:54:06.110Z,64.08
2023-01-02T15:56:34.409Z,64.95
2023-01-02T15:58:58.085Z,65.14
2023-01-02T16:01:23.594Z,65.47
2023-01-02T16:04:01.995Z,65.03
2023-01-02T16:06:32.468Z,64.73
2023-01-02T16:08:59.574Z,65.39
2023-01-02T16:11:24.531Z,65.31
2023-01-02T16:14:10.970Z,66.12
2023-01-02T16:16:49.111Z,66.18
2023-01-02T16:19:23.890Z,66.53
2023-01-02T16:21:51.573Z,66.45
2023-01-02T16:24:20.476Z,67.71
2023-01-02T16:26:45.418Z,67.34
2023-01-02T16:29:15.090Z,67.59
2023-01-02T16:31:57.352Z,67.94
2023-01-02T16:34:35.707Z,67.87
2023-01-02T16:37:40.209Z,68.44
2023-01-02T16:41:01.255Z,68.53
2023-01-02T16:43:26.176Z,68.55
2023-01-02T16:45:51.535Z,68.64
2023-01-02T16:48:20.525Z,69.57
2023-01-02T16:50:46.678Z,69.35
2023-01-02T16:53:17.878Z,69.59
2023-01-02T16:55:42.016Z,69.13
2023-01-02T16:58:07.174Z,68.40
2023-01-02T17:00:31.126Z,67.78
2023-01-02T17:02:55.021Z,67.56
2023-01-02T17:05:24.901Z,66.54
2023-01-02T17:07:48.459Z,67.64
2023-01-02T17:10:13.655Z,68.37
2023-01-02T17:12:43.397Z,68.97
2023-01-02T17:15:09.239Z,69.49
2023-01-02T17:17:32.810Z,69.18
2023-01-02T17:19:56.328Z,68.51
2023-01-02T17:22:19.895Z,68.57
2023-01-02T17:24:43.449Z,69.39
2023-01-02T17:27:08.681Z,68.94
2023-01-02T17:29:32.488Z,69.28
2023-01-02T17:31:56.083Z,68.56
2023-01-02T17:34:20.238Z,68.49
2023-01-02T17:36:43.909Z,68.55
2023-01-02T17:39:07.741Z,69.75
2023-01-02T17:41:32.075Z,68.77
2023-01-02T17:44:01.798Z,68.84
2023-01-02T17:47:00.758Z,69.17
2023-01-02T17:49:12.081Z,68.88
2023-01-02T17:51:36.632Z,69.13
2023-01-02T17:54:00.491Z,68.68
2023-01-02T17:56:25.290Z,68.27
2023-01-02T17:58:49.247Z,68.07
2023-01-02T18:01:20.694Z,68.87
2023-01-02T18:03:44.670Z,68.30
2023-01-02T18:06:10.087Z,68.94
2023-01-02T18:08:34.090Z,69.17
2023-01-02T18:10:57.654Z,69.59
2023-01-02T18:13:21.290Z,69.13
2023-01-02T18:15:44.788Z,68.49
2023-01-02T18:18:15.953Z,68.90
2023-01-02T18:20:41.217Z,68.52
2023-01-02T18:23:13.116Z,68.76
2023-01-02T18:25:37.184Z,68.49
2023-01-02T18:28:17.244Z,68.34
2023-01-02T18:30:40.902Z,68.43
2023-01-02T18:33:16.049Z,68.18
2023-01-02T18:38:32.184Z,67.87
2023-01-02T18:40:56.628Z,68.32
2023-01-02T18:43:25.181Z,68.87
2023-01-02T18:45:54.485Z,68.20
2023-01-02T18:48:21.052Z,68.58
2023-01-02T18:50:47.417Z,68.70
2023-01-02T18:53:19.044Z,68.74
2023-01-02T18:55:42.664Z,68.31
2023-01-02T18:58:36.614Z,67.79
2023-01-02T19:01:00.555Z,67.74
2023-01-02T19:03:28.593Z,68.13
2023-01-02T19:05:52.354Z,67.79
2023-01-02T19:08:21.339Z,67.52
2023-01-02T19:10:49.775Z,67.66
2023-01-02T19:13:20.918Z,67.03
2023-01-02T19:15:49.342Z,68.25
2023-01-02T19:18:38.190Z,68.05
2023-01-02T19:21:17.108Z,67.29
2023-01-02T19:23:48.592Z,67.56
2023-01-02T19:26:20.979Z,68.37
2023-01-02T19:28:53.544Z,68.19
2023-01-02T19:31:17.893Z,68.50
2023-01-02T19:33:44.796Z,69.30
2023-01-02T19:36:19.435Z,68.80
2023-01-02T19:38:43.131Z,68.51
2023-01-02T19:41:06.788Z,69.10
2023-01-02T19:43:30.421Z,69.93
2023-01-02T19:45:54.497Z,69.85
2023-01-02T19:48:18.587Z,70.28
2023-01-02T19:50:43.764Z,70.21
2023-01-02T19:53:07.417Z,70.43
2023-01-02T19:55:30.950Z,70.60
2023-01-02T19:57:54.950Z,70.40
2023-01-02T20:00:20.194Z,69.82
2023-01-02T20:02:45.392Z,69.87
2023-01-02T20:05:10.146Z,69.67
2023-01-02T20:07:35.144Z,70.40
2023-01-02T20:09:58.728Z,70.11
2023-01-02T20:12:34.491Z,69.56
2023-01-02T20:14:58.897Z,70.69
2023-01-02T20:17:22.476Z,70.87
2023-01-02T20:19:46.432Z,71.15
2023-01-02T20:22:09.952Z,71.71
2023-01-02T20:24:34.975Z,72.17
2023-01-02T20:27:00.918Z,71.92
2023-01-02T20:29:24.780Z,71.24
2023-01-02T20:31:48.839Z,71.22
2023-01-02T20:34:12.603Z,71.47
2023-01-02T20:36:36.144Z,72.08
2023-01-02T20:38:59.740Z,72.08
2023-01-02T20:41:24.688Z,71.76
2023-01-02T20:43:48.303Z,72.78
2023-01-02T20:46:11.976Z,72.64
2023-01-02T20:48:35.533Z,73.09
2023-01-02T20:50:59.305Z,74.27
2023-01-02T20:53:22.957Z,73.17
2023-01-02T20:55:47.732Z,73.26
2023-01-02T20:58:13.103Z,72.68
2023-01-02T21:00:36.736Z,73.44
2023-01-02T21:03:00.650Z,73.23
2023-01-02T21:05:24.446Z,73.61
2023-01-02T21:07:48.071Z,73.55
2023-01-02T21:10:11.744Z,73.82
2023-01-02T21:12:52.994Z,73.07
2023-01-02T21:15:31.935Z,73.51
2023-01-02T21:17:55.745Z,74.39
2023-01-02T21:20:19.418Z,74.82
2023-01-02T21:22:42.955Z,75.51
2023-01-02T21:25:07.439Z,75.53
2023-01-02T21:27:31.052Z,75.24
2023-01-02T21:29:55.578Z,74.93
2023-01-02T21:32:20.739Z,75.69
2023-01-02T21:34:44.439Z,75.90
2023-01-02T21:37:08.080Z,77.27
2023-01-02T21:39:32.248Z,77.59
2023-01-02T21:42:13.275Z,76.30
2023-01-02T21:44:36.842Z,76.27
2023-01-02T21:47:00.401Z,77.01
2023-01-02T21:49:26.756Z,77.33
2023-01-02T21:51:50.324Z,77.78
2023-01-02T21:54:13.933Z,76.96
2023-01-02T21:56:39.362Z,76.23
2023-01-02T21:59:02.982Z,76.38
2023-01-02T22:01:26.663Z,78.17
2023-01-02T22:03:50.490Z,79.39
2023-01-02T22:06:15.508Z,78.34
2023-01-02T22:08:39.111Z,77.27
2023-01-02T22:11:16.477Z,77.90
2023-01-02T22:13:40.026Z,77.69
2023-01-02T22:16:05.226Z,77.61
2023-01-02T22:18:29.632Z,78.11
2023-01-02T22:20:54.994Z,77.72
2023-01-02T22:23:20.053Z,78.72
2023-01-02T22:25:43.574Z,78.69
2023-01-02T22:28:07.239Z,77.86
2023-01-02T22:30:34.803Z,79.13
2023-01-02T22:32:59.001Z,77.71
2023-01-02T22:35:22.613Z,78.09
2023-01-02T22:37:46.284Z,76.71
2023-01-02T22:40:12.935Z,77.74
2023-01-02T22:43:10.099Z,76.64
2023-01-02T22:45:40.495Z,77.42
2023-01-02T22:48:09.823Z,78.77
2023-01-02T22:50:43.505Z,78.83
2023-01-02T22:53:14.273Z,78.71
2023-01-02T22:55:39.271Z,77.97
2023-01-02T22:58:02.829Z,77.43
2023-01-02T23:00:26.399Z,78.83
2023-01-02T23:02:50.037Z,78.08
2023-01-02T23:05:18.598Z,77.11
2023-01-02T23:07:42.150Z,77.48
2023-01-02T23:10:06.648Z,79.04
2023-01-02T23:12:31.616Z,78.52
2023-01-02T23:14:55.208Z,79.76
2023-01-02T23:17:41.306Z,79.37
2023-01-02T23:20:05.507Z,79.29
2023-01-02T23:22:29.015Z,78.38
2023-01-02T23:24:52.718Z,78.40
2023-01-02T23:27:16.307Z,80.31
2023-01-02T23:29:41.783Z,78.92
2023-01-02T23:32:06.518Z,80.45
2023-01-02T23:34:31.449Z,79.27
2023-01-02T23:36:57.015Z,78.72
2023-01-02T23:39:22.820Z,79.59
2023-01-02T23:41:47.142Z,79.64
2023-01-02T23:44:12.167Z,78.46
2023-01-02T23:46:37.211Z,79.06
2023-01-02T23:49:01.514Z,80.32
2023-01-02T23:51:25.504Z,79.61
2023-01-02T23:53:49.293Z,79.09
2023-01-02T23:56:20.383Z,79.11
2023-01-02T23:58:43.948Z,79.48
